createdAt,value
2019-05-15T00:00:47.981Z,8.90
2019-05-15T00:01:54.067Z,8.90
2019-05-15T00:03:00.260Z,8.90
2019-05-15T00:04:09.291Z,8.90
2019-05-15T00:05:15.215Z,8.90
2019-05-15T00:06:22.118Z,8.90
2019-05-15T00:07:29.373Z,8.90
2019-05-15T00:08:38.621Z,8.90
2019-05-15T00:09:45.148Z,8.90
2019-05-15T00:10:52.091Z,8.90
2019-05-15T00:11:59.136Z,8.90
2019-05-15T00:13:06.049Z,8.90
2019-05-15T00:14:12.206Z,8.90
2019-05-15T00:15:19.015Z,8.90
2019-05-15T00:16:25.236Z,8.90
2019-05-15T00:17:32.218Z,8.90
2019-05-15T00:18:39.575Z,8.90
2019-05-15T00:19:48.455Z,8.90
2019-05-15T00:20:54.167Z,9.00
2019-05-15T00:22:01.166Z,8.90
2019-05-15T00:23:08.512Z,8.90
2019-05-15T00:24:17.776Z,8.90
2019-05-15T00:25:23.554Z,9.00
2019-05-15T00:26:30.455Z,9.00
2019-05-15T00:27:38.641Z,9.00
2019-05-15T00:28:45.135Z,9.00
2019-05-15T00:29:51.375Z,9.00
2019-05-15T00:30:58.382Z,9.00
2019-05-15T00:32:04.815Z,9.00
2019-05-15T00:33:11.828Z,9.00
2019-05-15T00:34:18.377Z,8.90
2019-05-15T00:35:28.013Z,8.90
2019-05-15T00:36:33.434Z,9.00
2019-05-15T00:37:40.283Z,9.00
2019-05-15T00:38:48.330Z,9.00
2019-05-15T00:39:54.967Z,9.00
2019-05-15T00:41:01.320Z,9.00
2019-05-15T00:42:08.384Z,9.00
2019-05-15T00:43:14.867Z,9.00
2019-05-15T00:44:21.815Z,9.00
2019-05-15T00:45:28.092Z,9.00
2019-05-15T00:46:35.055Z,9.00
2019-05-15T00:47:41.309Z,9.00
2019-05-15T00:48:48.771Z,9.00
2019-05-15T00:49:55.207Z,9.00
2019-05-15T00:51:02.150Z,9.00
2019-05-15T00:52:12.241Z,9.00
2019-05-15T00:53:18.970Z,9.00
2019-05-15T00:54:24.811Z,9.00
2019-05-15T00:55:31.832Z,9.00
2019-05-15T00:56:39.146Z,9.00
2019-05-15T00:57:48.338Z,9.00
2019-05-15T00:58:53.836Z,9.00
2019-05-15T01:00:00.488Z,9.00
2019-05-15T01:01:08.344Z,9.10
2019-05-15T01:02:15.285Z,9.10
2019-05-15T01:03:21.684Z,9.10
2019-05-15T01:04:29.599Z,9.10
2019-05-15T01:05:35.902Z,9.10
2019-05-15T01:06:42.722Z,9.10
2019-05-15T01:07:49.993Z,9.00
2019-05-15T01:08:58.748Z,9.10
2019-05-15T01:10:05.495Z,9.00
2019-05-15T01:11:12.473Z,9.00
2019-05-15T01:12:18.670Z,9.00
2019-05-15T01:13:27.995Z,9.00
2019-05-15T01:14:34.384Z,9.00
2019-05-15T01:15:41.249Z,9.10
2019-05-15T01:16:48.953Z,9.00
2019-05-15T01:17:58.183Z,9.00
2019-05-15T01:19:04.003Z,9.00
2019-05-15T01:20:10.920Z,9.10
2019-05-15T01:21:18.790Z,9.00
2019-05-15T01:22:28.517Z,9.00
2019-05-15T01:23:34.050Z,9.00
2019-05-15T01:24:40.995Z,9.10
2019-05-15T01:25:48.234Z,9.00
2019-05-15T01:26:55.267Z,9.00
2019-05-15T01:28:01.589Z,9.10
2019-05-15T01:29:09.043Z,9.10
2019-05-15T01:30:17.885Z,9.10
2019-05-15T01:31:24.609Z,9.00
2019-05-15T01:32:31.142Z,9.00
2019-05-15T01:33:39.014Z,9.00
2019-05-15T01:34:45.740Z,9.00
2019-05-15T01:35:52.768Z,9.00
2019-05-15T01:36:59.187Z,9.00
2019-05-15T01:38:08.098Z,9.00
2019-05-15T01:39:14.292Z,9.10
2019-05-15T01:40:21.287Z,9.10
2019-05-15T01:41:28.208Z,9.10
2019-05-15T01:42:35.306Z,9.10
2019-05-15T01:43:41.618Z,9.10
2019-05-15T01:44:48.674Z,9.10
2019-05-15T01:45:54.723Z,9.10
2019-05-15T01:47:01.463Z,9.00
2019-05-15T01:48:08.227Z,9.10
2019-05-15T01:49:15.167Z,9.10
2019-05-15T01:50:21.556Z,9.10
2019-05-15T01:51:28.684Z,9.10
2019-05-15T01:52:35.272Z,9.10
2019-05-15T01:53:42.046Z,9.10
2019-05-15T01:54:48.916Z,9.10
2019-05-15T01:55:55.770Z,9.10
2019-05-15T01:57:01.856Z,9.10
2019-05-15T01:58:09.238Z,9.10
2019-05-15T01:59:15.796Z,9.10
2019-05-15T02:00:22.884Z,9.10
2019-05-15T02:01:29.208Z,9.10
2019-05-15T02:02:35.935Z,9.10
2019-05-15T02:03:42.296Z,9.10
2019-05-15T02:04:49.187Z,9.10
2019-05-15T02:05:55.531Z,9.10
2019-05-15T02:07:02.351Z,9.10
2019-05-15T02:08:08.654Z,9.10
2019-05-15T02:09:15.383Z,9.10
2019-05-15T02:10:21.866Z,9.10
2019-05-15T02:11:29.004Z,9.10
2019-05-15T02:12:38.472Z,9.10
2019-05-15T02:13:44.086Z,9.10
2019-05-15T02:14:50.459Z,9.10
2019-05-15T02:15:58.925Z,9.10
2019-05-15T02:17:05.289Z,9.10
2019-05-15T02:18:12.026Z,9.10
2019-05-15T02:19:19.395Z,9.10
2019-05-15T02:20:26.306Z,9.10
2019-05-15T02:21:33.642Z,9.10
2019-05-15T02:22:42.550Z,9.10
2019-05-15T02:23:48.552Z,9.10
2019-05-15T02:24:58.960Z,9.10
2019-05-15T02:26:04.242Z,9.10
2019-05-15T02:27:11.043Z,9.10
2019-05-15T02:28:18.348Z,9.10
2019-05-15T02:29:25.342Z,9.10
2019-05-15T02:30:34.198Z,9.10
2019-05-15T02:31:40.117Z,9.00
2019-05-15T02:32:49.882Z,9.10
2019-05-15T02:33:55.143Z,9.10
2019-05-15T02:35:01.421Z,9.10
2019-05-15T02:36:09.710Z,9.10
2019-05-15T02:37:19.038Z,9.10
2019-05-15T02:38:24.764Z,9.10
2019-05-15T02:39:31.100Z,9.10
2019-05-15T02:40:40.474Z,9.10
2019-05-15T02:41:48.851Z,9.10
2019-05-15T02:42:54.669Z,9.10
2019-05-15T02:44:00.854Z,9.10
2019-05-15T02:45:09.857Z,9.10
2019-05-15T02:46:19.158Z,9.10
2019-05-15T02:47:24.456Z,9.10
2019-05-15T02:48:30.708Z,9.10
2019-05-15T02:49:39.660Z,9.10
2019-05-15T02:50:45.519Z,9.10
2019-05-15T02:51:52.431Z,9.10
2019-05-15T02:53:00.470Z,9.10
2019-05-15T02:54:10.307Z,9.10
2019-05-15T02:55:15.235Z,9.10
2019-05-15T02:56:22.141Z,9.10
2019-05-15T02:57:30.031Z,9.00
2019-05-15T02:58:39.655Z,9.10
2019-05-15T02:59:45.473Z,9.10
2019-05-15T03:00:53.774Z,9.00
2019-05-15T03:02:00.088Z,9.10
2019-05-15T03:03:09.506Z,9.10
2019-05-15T03:04:14.822Z,9.00
2019-05-15T03:05:21.795Z,9.10
2019-05-15T03:06:29.907Z,9.10
2019-05-15T03:07:39.694Z,9.00
2019-05-15T03:08:44.758Z,9.00
2019-05-15T03:09:51.678Z,9.10
2019-05-15T03:10:59.263Z,9.10
2019-05-15T03:12:08.910Z,9.10
2019-05-15T03:13:14.253Z,9.10
2019-05-15T03:14:21.660Z,9.10
2019-05-15T03:15:29.107Z,9.10
2019-05-15T03:16:39.153Z,9.10
2019-05-15T03:17:44.289Z,9.10
2019-05-15T03:18:55.180Z,9.10
2019-05-15T03:19:59.219Z,9.10
2019-05-15T03:21:09.274Z,9.10
2019-05-15T03:22:15.316Z,9.10
2019-05-15T03:23:22.056Z,9.10
2019-05-15T03:24:28.978Z,9.10
2019-05-15T03:25:36.125Z,9.10
2019-05-15T03:26:42.603Z,9.10
2019-05-15T03:27:50.011Z,9.10
2019-05-15T03:28:59.029Z,9.10
2019-05-15T03:30:05.067Z,9.10
2019-05-15T03:31:32.953Z,9.20
2019-05-15T03:32:32.791Z,9.10
2019-05-15T03:33:35.968Z,9.10
2019-05-15T03:34:44.577Z,9.10
2019-05-15T03:35:45.021Z,9.10
2019-05-15T03:36:53.639Z,9.10
2019-05-15T03:38:00.118Z,9.20
2019-05-15T03:39:09.681Z,9.10
2019-05-15T03:40:15.669Z,9.20
2019-05-15T03:41:22.553Z,9.20
2019-05-15T03:42:29.448Z,9.20
2019-05-15T03:43:39.358Z,9.20
2019-05-15T03:44:44.316Z,9.20
2019-05-15T03:45:51.198Z,9.20
2019-05-15T03:46:59.580Z,9.20
2019-05-15T03:48:08.976Z,9.20
2019-05-15T03:49:14.056Z,9.20
2019-05-15T03:50:20.893Z,9.20
2019-05-15T03:51:28.916Z,9.20
2019-05-15T03:52:39.071Z,9.20
2019-05-15T03:53:43.798Z,9.20
2019-05-15T03:54:50.620Z,9.20
2019-05-15T03:55:58.963Z,9.30
2019-05-15T03:57:06.064Z,9.20
2019-05-15T03:58:12.257Z,9.30
2019-05-15T03:59:20.217Z,9.30
2019-05-15T04:00:29.883Z,9.30
2019-05-15T04:01:42.851Z,9.30
2019-05-15T04:02:43.245Z,9.30
2019-05-15T04:03:50.147Z,9.30
2019-05-15T04:05:00.553Z,9.30
2019-05-15T04:06:05.013Z,9.30
2019-05-15T04:07:11.450Z,9.30
2019-05-15T04:08:19.454Z,9.30
2019-05-15T04:09:29.186Z,9.30
2019-05-15T04:10:34.736Z,9.30
2019-05-15T04:11:41.065Z,9.30
2019-05-15T04:12:49.267Z,9.30
2019-05-15T04:13:59.174Z,9.30
2019-05-15T04:15:05.497Z,9.30
2019-05-15T04:16:11.959Z,9.30
2019-05-15T04:17:19.800Z,9.30
2019-05-15T04:18:29.126Z,9.30
2019-05-15T04:19:34.987Z,9.30
2019-05-15T04:20:41.362Z,9.30
2019-05-15T04:21:49.358Z,9.40
2019-05-15T04:22:59.982Z,9.40
2019-05-15T04:24:04.964Z,9.40
2019-05-15T04:25:11.812Z,9.40
2019-05-15T04:26:19.530Z,9.40
2019-05-15T04:27:28.755Z,9.40
2019-05-15T04:28:36.416Z,9.40
2019-05-15T04:29:43.206Z,9.40
2019-05-15T04:30:50.169Z,9.40
2019-05-15T04:32:02.541Z,9.40
2019-05-15T04:33:04.983Z,9.40
2019-05-15T04:34:11.294Z,9.40
2019-05-15T04:35:19.785Z,9.40
2019-05-15T04:36:29.383Z,9.40
2019-05-15T04:37:34.699Z,9.40
2019-05-15T04:38:40.944Z,9.40
2019-05-15T04:39:49.138Z,9.40
2019-05-15T04:40:58.871Z,9.50
2019-05-15T04:42:04.414Z,9.50
2019-05-15T04:43:11.820Z,9.40
2019-05-15T04:44:19.306Z,9.50
2019-05-15T04:45:33.842Z,9.50
2019-05-15T04:46:35.466Z,9.40
2019-05-15T04:47:41.951Z,9.50
2019-05-15T04:48:50.240Z,9.50
2019-05-15T04:49:59.012Z,9.50
2019-05-15T04:51:05.397Z,9.50
2019-05-15T04:52:11.873Z,9.50
2019-05-15T04:53:19.220Z,9.50
2019-05-15T04:54:28.714Z,9.50
2019-05-15T04:55:34.132Z,9.50
2019-05-15T04:56:40.609Z,9.50
2019-05-15T04:57:50.196Z,9.50
2019-05-15T04:58:55.430Z,9.50
2019-05-15T05:00:02.349Z,9.50
2019-05-15T05:01:09.505Z,9.60
2019-05-15T05:02:26.036Z,9.60
2019-05-15T05:03:28.745Z,9.60
2019-05-15T05:04:34.080Z,9.60
2019-05-15T05:05:41.058Z,9.60
2019-05-15T05:06:49.479Z,9.60
2019-05-15T05:07:56.355Z,9.60
2019-05-15T05:09:05.453Z,9.60
2019-05-15T05:10:11.795Z,9.60
2019-05-15T05:11:19.370Z,9.60
2019-05-15T05:12:28.958Z,9.60
2019-05-15T05:13:35.928Z,9.60
2019-05-15T05:14:42.385Z,9.60
2019-05-15T05:15:50.248Z,9.60
2019-05-15T05:16:59.332Z,9.60
2019-05-15T05:18:05.835Z,9.60
2019-05-15T05:19:12.144Z,9.60
2019-05-15T05:20:19.215Z,9.60
2019-05-15T05:21:27.700Z,9.70
2019-05-15T05:22:34.433Z,9.70
2019-05-15T05:23:40.725Z,9.60
2019-05-15T05:24:47.886Z,9.60
2019-05-15T05:25:55.337Z,9.60
2019-05-15T05:27:02.198Z,9.60
2019-05-15T05:28:08.854Z,9.60
2019-05-15T05:29:17.806Z,9.70
2019-05-15T05:30:24.195Z,9.70
2019-05-15T05:31:31.302Z,9.70
2019-05-15T05:32:38.834Z,9.80
2019-05-15T05:33:48.468Z,9.80
2019-05-15T05:34:54.104Z,9.70
2019-05-15T05:36:01.651Z,9.70
2019-05-15T05:37:07.989Z,9.70
2019-05-15T05:38:14.869Z,9.70
2019-05-15T05:39:21.182Z,9.70
2019-05-15T05:40:29.291Z,9.80
2019-05-15T05:41:35.812Z,9.70
2019-05-15T05:42:43.330Z,9.70
2019-05-15T05:43:49.537Z,9.70
2019-05-15T05:44:58.212Z,9.70
2019-05-15T05:46:04.388Z,9.80
2019-05-15T05:47:11.227Z,9.80
2019-05-15T05:48:18.748Z,9.80
2019-05-15T05:49:25.869Z,9.70
2019-05-15T05:50:39.496Z,9.70
2019-05-15T05:51:48.112Z,9.80
2019-05-15T05:52:54.203Z,9.80
2019-05-15T05:54:01.204Z,9.70
2019-05-15T05:55:08.878Z,9.80
2019-05-15T05:56:17.958Z,9.80
2019-05-15T05:57:23.947Z,9.80
2019-05-15T05:58:30.640Z,9.80
2019-05-15T05:59:38.686Z,9.80
2019-05-15T06:00:48.915Z,9.80
2019-05-15T06:01:55.013Z,9.80
2019-05-15T06:03:03.163Z,9.80
2019-05-15T06:04:09.488Z,9.80
2019-05-15T06:05:18.802Z,9.80
2019-05-15T06:06:24.553Z,9.80
2019-05-15T06:07:31.411Z,9.80
2019-05-15T06:08:38.895Z,9.80
2019-05-15T06:09:48.491Z,9.80
2019-05-15T06:10:54.314Z,9.80
2019-05-15T06:12:01.386Z,9.80
2019-05-15T06:13:08.932Z,9.80
2019-05-15T06:14:18.115Z,9.80
2019-05-15T06:15:23.737Z,9.80
2019-05-15T06:16:30.586Z,9.80
2019-05-15T06:17:39.153Z,9.80
2019-05-15T06:18:45.427Z,9.80
2019-05-15T06:19:51.742Z,9.80
2019-05-15T06:20:58.927Z,9.80
2019-05-15T06:22:05.093Z,9.80
2019-05-15T06:23:12.102Z,9.90
2019-05-15T06:24:18.507Z,9.90
2019-05-15T06:25:30.272Z,9.80
2019-05-15T06:26:34.652Z,9.80
2019-05-15T06:27:41.453Z,9.90
2019-05-15T06:28:48.941Z,9.90
2019-05-15T06:29:58.010Z,9.90
2019-05-15T06:31:04.506Z,9.90
2019-05-15T06:32:11.502Z,9.90
2019-05-15T06:33:18.653Z,9.90
2019-05-15T06:34:25.658Z,9.90
2019-05-15T06:35:33.045Z,9.90
2019-05-15T06:36:39.866Z,9.90
2019-05-15T06:37:48.369Z,9.80
2019-05-15T06:38:54.671Z,9.90
2019-05-15T06:40:00.993Z,9.90
2019-05-15T06:41:08.770Z,9.90
2019-05-15T06:42:15.242Z,10.00
2019-05-15T06:43:22.419Z,10.00
2019-05-15T06:44:28.778Z,10.00
2019-05-15T06:45:37.872Z,10.00
2019-05-15T06:46:43.699Z,10.00
2019-05-15T06:47:51.784Z,10.00
2019-05-15T06:48:58.312Z,10.00
2019-05-15T06:50:05.467Z,10.00
2019-05-15T06:51:12.075Z,10.00
2019-05-15T06:52:19.034Z,10.00
2019-05-15T06:53:25.564Z,10.00
2019-05-15T06:54:32.461Z,10.00
2019-05-15T06:55:39.004Z,10.00
2019-05-15T06:56:45.874Z,10.10
2019-05-15T06:57:52.034Z,10.10
2019-05-15T06:58:58.846Z,10.10
2019-05-15T07:00:05.095Z,10.10
2019-05-15T07:01:11.847Z,10.10
2019-05-15T07:02:18.904Z,10.20
2019-05-15T07:03:29.461Z,10.20
2019-05-15T07:04:35.155Z,10.20
2019-05-15T07:05:41.946Z,10.20
2019-05-15T07:06:48.849Z,10.20
2019-05-15T07:07:58.452Z,10.30
2019-05-15T07:09:04.937Z,10.30
2019-05-15T07:10:12.033Z,10.20
2019-05-15T07:11:19.107Z,10.20
2019-05-15T07:12:28.135Z,10.20
2019-05-15T07:13:34.226Z,10.20
2019-05-15T07:14:41.035Z,10.30
2019-05-15T07:15:49.473Z,10.30
2019-05-15T07:16:56.114Z,10.30
2019-05-15T07:18:02.529Z,10.20
2019-05-15T07:19:09.535Z,10.20
2019-05-15T07:20:18.466Z,10.30
2019-05-15T07:21:24.763Z,10.20
2019-05-15T07:22:31.168Z,10.30
2019-05-15T07:23:38.784Z,10.20
2019-05-15T07:24:45.193Z,10.20
2019-05-15T07:25:52.217Z,10.30
2019-05-15T07:26:59.117Z,10.30
2019-05-15T07:28:08.589Z,10.40
2019-05-15T07:29:14.481Z,10.40
2019-05-15T07:30:21.750Z,10.40
2019-05-15T07:31:28.855Z,10.40
2019-05-15T07:32:39.559Z,10.40
2019-05-15T07:33:45.903Z,10.40
2019-05-15T07:34:52.734Z,10.30
2019-05-15T07:35:59.173Z,10.30
2019-05-15T07:37:09.464Z,10.40
2019-05-15T07:38:14.343Z,10.30
2019-05-15T07:39:21.245Z,10.40
2019-05-15T07:40:29.368Z,10.40
2019-05-15T07:41:36.376Z,10.40
2019-05-15T07:42:42.583Z,10.50
2019-05-15T07:43:49.643Z,10.40
2019-05-15T07:44:58.885Z,10.50
2019-05-15T07:46:08.088Z,10.40
2019-05-15T07:47:13.521Z,10.50
2019-05-15T07:48:20.422Z,10.50
2019-05-15T07:49:28.738Z,10.50
2019-05-15T07:50:35.387Z,10.50
2019-05-15T07:51:41.727Z,10.50
2019-05-15T07:52:48.683Z,10.50
2019-05-15T07:53:54.967Z,10.60
2019-05-15T07:55:01.866Z,10.60
2019-05-15T07:56:11.650Z,10.60
2019-05-15T07:57:19.314Z,10.60
2019-05-15T07:58:25.066Z,10.70
2019-05-15T07:59:31.995Z,10.70
2019-05-15T08:00:39.415Z,10.70
2019-05-15T08:01:48.853Z,10.70
2019-05-15T08:02:54.830Z,10.70
2019-05-15T08:04:21.731Z,10.70
2019-05-15T08:05:11.952Z,10.80
2019-05-15T08:06:18.799Z,10.80
2019-05-15T08:07:25.198Z,10.80
2019-05-15T08:08:32.114Z,10.90
2019-05-15T08:09:39.098Z,10.90
2019-05-15T08:10:48.561Z,11.00
2019-05-15T08:11:54.252Z,11.10
2019-05-15T08:13:01.366Z,11.10
2019-05-15T08:14:09.122Z,11.20
2019-05-15T08:15:18.344Z,11.20
2019-05-15T08:16:24.986Z,11.30
2019-05-15T08:17:32.014Z,11.20
2019-05-15T08:18:39.389Z,11.20
2019-05-15T08:19:48.683Z,11.20
2019-05-15T08:20:54.767Z,11.30
2019-05-15T08:22:01.865Z,11.30
2019-05-15T08:23:08.605Z,11.30
2019-05-15T08:24:15.743Z,11.20
2019-05-15T08:25:32.230Z,11.20
2019-05-15T08:26:31.185Z,11.20
2019-05-15T08:27:38.215Z,11.20
2019-05-15T08:28:48.709Z,11.20
2019-05-15T08:29:55.373Z,11.20
2019-05-15T08:31:02.481Z,11.20
2019-05-15T08:32:09.002Z,11.20
2019-05-15T08:33:17.842Z,11.20
2019-05-15T08:34:24.576Z,11.20
2019-05-15T08:35:32.793Z,11.20
2019-05-15T08:36:39.047Z,11.10
2019-05-15T08:37:45.942Z,11.10
2019-05-15T08:38:53.377Z,11.10
2019-05-15T08:40:00.160Z,11.20
2019-05-15T08:41:11.128Z,11.20
2019-05-15T08:42:15.159Z,11.20
2019-05-15T08:43:21.567Z,11.20
2019-05-15T08:44:29.381Z,11.20
2019-05-15T08:45:35.960Z,11.20
2019-05-15T08:46:44.398Z,11.20
2019-05-15T08:47:50.776Z,11.10
2019-05-15T08:48:58.313Z,11.20
2019-05-15T08:50:05.296Z,11.20
2019-05-15T08:51:12.117Z,11.20
2019-05-15T08:52:19.052Z,11.20
2019-05-15T08:53:28.473Z,11.20
2019-05-15T08:54:35.326Z,11.20
2019-05-15T08:55:42.526Z,11.20
2019-05-15T08:56:48.785Z,11.20
2019-05-15T08:58:04.546Z,11.20
2019-05-15T08:59:04.109Z,11.20
2019-05-15T09:00:11.387Z,11.20
2019-05-15T09:01:18.153Z,11.20
2019-05-15T09:02:25.180Z,11.20
2019-05-15T09:03:31.525Z,11.30
2019-05-15T09:04:38.798Z,11.30
2019-05-15T09:05:45.208Z,11.30
2019-05-15T09:06:52.501Z,11.20
2019-05-15T09:07:58.764Z,11.20
2019-05-15T09:09:09.637Z,11.20
2019-05-15T09:10:18.189Z,11.20
2019-05-15T09:11:24.523Z,11.20
2019-05-15T09:12:31.180Z,11.20
2019-05-15T09:13:43.440Z,11.30
2019-05-15T09:14:48.571Z,11.20
2019-05-15T09:15:54.809Z,11.20
2019-05-15T09:17:03.464Z,11.20
2019-05-15T09:18:15.828Z,11.20
2019-05-15T09:19:18.700Z,11.20
2019-05-15T09:20:28.785Z,11.10
2019-05-15T09:21:35.010Z,11.20
2019-05-15T09:22:41.877Z,11.20
2019-05-15T09:23:49.805Z,11.20
2019-05-15T09:24:58.914Z,11.30
2019-05-15T09:26:04.923Z,11.20
2019-05-15T09:27:11.814Z,11.30
2019-05-15T09:28:18.927Z,11.30
2019-05-15T09:29:28.406Z,11.30
2019-05-15T09:30:34.429Z,11.30
2019-05-15T09:31:41.443Z,11.20
2019-05-15T09:32:48.406Z,11.20
2019-05-15T09:33:55.546Z,11.30
2019-05-15T09:35:02.018Z,11.20
2019-05-15T09:36:09.842Z,11.20
2019-05-15T09:37:18.082Z,11.20
2019-05-15T09:38:24.862Z,11.30
2019-05-15T09:39:31.218Z,11.30
2019-05-15T09:40:45.971Z,11.30
2019-05-15T09:41:48.549Z,11.20
2019-05-15T09:42:54.832Z,11.30
2019-05-15T09:44:01.106Z,11.30
2019-05-15T09:45:09.084Z,11.30
2019-05-15T09:46:15.592Z,11.30
2019-05-15T09:47:22.621Z,11.30
2019-05-15T09:48:29.057Z,11.40
2019-05-15T09:49:35.924Z,11.30
2019-05-15T09:50:42.379Z,11.30
2019-05-15T09:51:49.447Z,11.30
2019-05-15T09:52:55.853Z,11.30
2019-05-15T09:54:03.247Z,11.30
2019-05-15T09:55:10.652Z,11.20
2019-05-15T09:56:18.697Z,11.20
2019-05-15T09:57:25.383Z,11.30
2019-05-15T09:58:32.418Z,11.20
2019-05-15T09:59:39.095Z,11.30
2019-05-15T10:00:50.827Z,11.20
2019-05-15T10:01:54.247Z,11.20
2019-05-15T10:03:01.178Z,11.20
2019-05-15T10:04:08.371Z,11.20
2019-05-15T10:05:18.523Z,11.20
2019-05-15T10:06:24.234Z,11.20
2019-05-15T10:07:31.156Z,11.20
2019-05-15T10:08:39.789Z,11.20
2019-05-15T10:09:48.346Z,11.20
2019-05-15T10:10:54.137Z,11.20
2019-05-15T10:12:00.927Z,11.30
2019-05-15T10:13:09.020Z,11.20
2019-05-15T10:14:19.284Z,11.30
2019-05-15T10:15:25.120Z,11.30
2019-05-15T10:16:31.876Z,11.30
2019-05-15T10:17:38.283Z,11.30
2019-05-15T10:18:50.418Z,11.40
2019-05-15T10:19:53.288Z,11.40
2019-05-15T10:21:00.423Z,11.40
2019-05-15T10:22:09.492Z,11.40
2019-05-15T10:23:19.497Z,11.40
2019-05-15T10:24:24.456Z,11.40
2019-05-15T10:25:31.560Z,11.40
2019-05-15T10:26:39.269Z,11.40
2019-05-15T10:27:48.730Z,11.40
2019-05-15T10:28:54.662Z,11.30
2019-05-15T10:30:01.526Z,11.30
2019-05-15T10:31:09.400Z,11.40
2019-05-15T10:32:19.450Z,11.40
2019-05-15T10:33:25.686Z,11.40
2019-05-15T10:34:32.448Z,11.40
2019-05-15T10:35:39.444Z,11.40
2019-05-15T10:36:46.479Z,11.40
2019-05-15T10:37:52.875Z,11.40
2019-05-15T10:38:59.872Z,11.40
2019-05-15T10:40:09.144Z,11.50
2019-05-15T10:41:18.828Z,11.40
2019-05-15T10:42:24.935Z,11.40
2019-05-15T10:43:31.734Z,11.50
2019-05-15T10:44:39.210Z,11.40
2019-05-15T10:45:49.757Z,11.40
2019-05-15T10:46:54.678Z,11.50
2019-05-15T10:48:01.696Z,11.50
2019-05-15T10:49:08.793Z,11.50
2019-05-15T10:50:19.078Z,11.40
2019-05-15T10:51:28.411Z,11.40
2019-05-15T10:52:34.391Z,11.40
2019-05-15T10:53:40.858Z,11.40
2019-05-15T10:54:48.173Z,11.40
2019-05-15T10:55:54.385Z,11.40
2019-05-15T10:57:01.179Z,11.40
2019-05-15T10:58:14.136Z,11.40
2019-05-15T10:59:18.121Z,11.40
2019-05-15T11:00:24.916Z,11.40
2019-05-15T11:01:31.773Z,11.40
2019-05-15T11:02:39.392Z,11.40
2019-05-15T11:03:49.256Z,11.40
2019-05-15T11:04:54.485Z,11.40
2019-05-15T11:06:01.402Z,11.40
2019-05-15T11:07:09.681Z,11.40
2019-05-15T11:08:18.578Z,11.30
2019-05-15T11:09:24.326Z,11.40
2019-05-15T11:10:31.232Z,11.40
2019-05-15T11:11:37.583Z,11.40
2019-05-15T11:12:45.464Z,11.40
2019-05-15T11:13:51.732Z,11.40
2019-05-15T11:14:58.572Z,11.30
2019-05-15T11:16:05.205Z,11.30
2019-05-15T11:17:12.224Z,11.40
2019-05-15T11:18:18.445Z,11.30
2019-05-15T11:19:33.257Z,11.30
2019-05-15T11:20:33.377Z,11.40
2019-05-15T11:21:43.339Z,11.30
2019-05-15T11:22:50.072Z,11.30
2019-05-15T11:23:59.010Z,11.30
2019-05-15T11:25:05.319Z,11.40
2019-05-15T11:26:12.393Z,11.30
2019-05-15T11:27:19.100Z,11.30
2019-05-15T11:28:31.753Z,11.30
2019-05-15T11:29:34.239Z,11.30
2019-05-15T11:30:41.493Z,11.30
2019-05-15T11:31:48.781Z,11.30
2019-05-15T11:32:58.606Z,11.30
2019-05-15T11:34:03.802Z,11.30
2019-05-15T11:35:10.906Z,11.20
2019-05-15T11:36:18.496Z,11.20
2019-05-15T11:37:28.102Z,11.30
2019-05-15T11:38:33.636Z,11.20
2019-05-15T11:39:45.964Z,11.20
2019-05-15T11:40:48.190Z,11.30
2019-05-15T11:41:55.505Z,11.20
2019-05-15T11:43:01.972Z,11.20
2019-05-15T11:44:09.089Z,11.20
2019-05-15T11:45:18.278Z,11.20
2019-05-15T11:46:25.833Z,11.20
2019-05-15T11:47:32.537Z,11.20
2019-05-15T11:48:39.503Z,11.20
2019-05-15T11:49:45.871Z,11.20
2019-05-15T11:50:52.905Z,11.20
2019-05-15T11:52:00.529Z,11.20
2019-05-15T11:53:09.195Z,11.30
2019-05-15T11:54:15.574Z,11.30
2019-05-15T11:55:22.630Z,11.30
2019-05-15T11:56:29.518Z,11.30
2019-05-15T11:57:43.493Z,11.20
2019-05-15T11:58:44.787Z,11.30
2019-05-15T11:59:55.395Z,11.30
2019-05-15T12:00:59.485Z,11.30
2019-05-15T12:02:08.470Z,11.30
2019-05-15T12:03:14.116Z,11.30
2019-05-15T12:04:30.419Z,11.30
2019-05-15T12:05:29.216Z,11.30
2019-05-15T12:06:38.419Z,11.30
2019-05-15T12:07:47.679Z,11.30
2019-05-15T12:08:52.727Z,11.30
2019-05-15T12:09:59.145Z,11.30
2019-05-15T12:11:06.132Z,11.30
2019-05-15T12:12:13.375Z,11.20
2019-05-15T12:13:20.292Z,11.20
2019-05-15T12:14:29.422Z,11.20
2019-05-15T12:15:35.244Z,11.30
2019-05-15T12:16:41.713Z,11.30
2019-05-15T12:17:48.713Z,11.30
2019-05-15T12:18:54.945Z,11.30
2019-05-15T12:20:06.457Z,11.30
2019-05-15T12:21:09.695Z,11.30
2019-05-15T12:22:16.587Z,11.30
2019-05-15T12:23:22.801Z,11.30
2019-05-15T12:24:35.170Z,11.40
2019-05-15T12:25:39.557Z,11.30
2019-05-15T12:26:48.720Z,11.40
2019-05-15T12:27:54.040Z,11.40
2019-05-15T12:29:00.949Z,11.30
2019-05-15T12:30:10.044Z,11.30
2019-05-15T12:31:16.184Z,11.30
2019-05-15T12:33:31.028Z,11.30
2019-05-15T12:34:38.815Z,11.30
2019-05-15T12:35:45.950Z,11.20
2019-05-15T12:36:57.753Z,11.30
2019-05-15T12:38:01.026Z,11.30
2019-05-15T12:39:13.188Z,11.30
2019-05-15T12:59:41.522Z,11.10
2019-05-15T13:00:48.974Z,11.20
2019-05-15T13:01:55.203Z,11.20
2019-05-15T13:03:02.138Z,11.10
2019-05-15T13:04:08.389Z,11.10
2019-05-15T13:05:15.612Z,11.20
2019-05-15T13:06:21.969Z,11.20
2019-05-15T13:07:28.939Z,11.20
2019-05-15T13:08:38.503Z,11.20
2019-05-15T13:09:44.824Z,11.20
2019-05-15T13:10:51.152Z,11.20
2019-05-15T13:11:58.962Z,11.20
2019-05-15T13:13:08.857Z,11.20
2019-05-15T13:14:14.977Z,11.20
2019-05-15T13:15:21.622Z,11.20
2019-05-15T13:16:28.486Z,11.30
2019-05-15T13:17:34.957Z,11.30
2019-05-15T13:18:41.827Z,11.30
2019-05-15T13:19:48.458Z,11.30
2019-05-15T13:20:56.835Z,11.30
2019-05-15T13:22:03.136Z,11.30
2019-05-15T13:23:10.182Z,11.20
2019-05-15T13:24:19.160Z,11.20
2019-05-15T13:25:25.276Z,11.30
2019-05-15T13:26:31.498Z,11.30
2019-05-15T13:27:38.475Z,11.30
2019-05-15T13:28:44.912Z,11.30
2019-05-15T13:29:51.797Z,11.30
2019-05-15T13:30:59.677Z,11.30
2019-05-15T13:32:08.051Z,11.30
2019-05-15T13:33:14.566Z,11.30
2019-05-15T13:34:21.393Z,11.30
2019-05-15T13:35:28.797Z,11.30
2019-05-15T13:36:35.861Z,11.40
2019-05-15T13:37:42.178Z,11.30
2019-05-15T13:38:49.422Z,11.30
2019-05-15T13:39:55.750Z,11.30
2019-05-15T13:41:02.543Z,11.30
2019-05-15T13:42:09.421Z,11.30
2019-05-15T13:43:18.438Z,11.30
2019-05-15T13:44:24.566Z,11.20
2019-05-15T13:45:31.405Z,11.20
2019-05-15T13:46:38.140Z,11.20
2019-05-15T13:47:45.135Z,11.30
2019-05-15T13:48:51.464Z,11.30
2019-05-15T13:49:58.663Z,11.30
2019-05-15T13:51:06.009Z,11.30
2019-05-15T13:52:12.908Z,11.30
2019-05-15T13:53:19.234Z,11.30
2019-05-15T13:54:28.417Z,11.30
2019-05-15T13:55:37.191Z,11.30
2019-05-15T13:56:42.490Z,11.40
2019-05-15T13:57:48.850Z,11.40
2019-05-15T13:58:58.531Z,11.40
2019-05-15T14:00:08.447Z,11.40
2019-05-15T14:01:14.051Z,11.40
2019-05-15T14:02:20.295Z,11.40
2019-05-15T14:03:28.483Z,11.40
2019-05-15T14:04:35.116Z,11.40
2019-05-15T14:05:44.990Z,11.30
2019-05-15T14:06:49.859Z,11.40
2019-05-15T14:07:58.328Z,11.40
2019-05-15T14:09:08.765Z,11.40
2019-05-15T14:10:15.426Z,11.40
2019-05-15T14:11:22.314Z,11.40
2019-05-15T14:12:29.281Z,11.40
2019-05-15T14:13:35.619Z,11.40
2019-05-15T14:14:42.495Z,11.40
2019-05-15T14:15:48.906Z,11.40
2019-05-15T14:16:55.826Z,11.40
2019-05-15T14:18:02.168Z,11.40
2019-05-15T14:19:09.351Z,11.40
2019-05-15T14:20:16.106Z,11.40
2019-05-15T14:21:22.988Z,11.40
2019-05-15T14:22:29.174Z,11.40
2019-05-15T14:23:38.259Z,11.50
2019-05-15T14:24:43.957Z,11.50
2019-05-15T14:25:50.847Z,11.50
2019-05-15T14:26:59.388Z,11.50
2019-05-15T14:28:08.722Z,11.50
2019-05-15T14:29:14.297Z,11.40
2019-05-15T14:30:21.501Z,11.40
2019-05-15T14:31:28.447Z,11.40
2019-05-15T14:32:39.171Z,11.40
2019-05-15T14:33:43.632Z,11.40
2019-05-15T14:34:51.086Z,11.40
2019-05-15T14:35:58.063Z,11.50
2019-05-15T14:37:04.827Z,11.50
2019-05-15T14:38:11.350Z,11.40
2019-05-15T14:39:20.968Z,11.40
2019-05-15T14:40:27.179Z,11.40
2019-05-15T14:41:34.235Z,11.40
2019-05-15T14:42:40.628Z,11.40
2019-05-15T14:43:48.439Z,11.40
2019-05-15T14:44:54.735Z,11.50
2019-05-15T14:46:02.529Z,11.50
2019-05-15T14:47:08.948Z,11.50
2019-05-15T14:48:15.976Z,11.50
2019-05-15T14:49:22.208Z,11.50
2019-05-15T14:50:29.507Z,11.50
2019-05-15T14:51:35.843Z,11.50
2019-05-15T14:52:42.963Z,11.50
2019-05-15T14:53:49.420Z,11.50
2019-05-15T14:54:59.041Z,11.50
2019-05-15T14:56:05.276Z,11.50
2019-05-15T14:57:13.096Z,11.50
2019-05-15T14:58:20.315Z,11.50
2019-05-15T14:59:27.422Z,11.50
2019-05-15T15:00:35.040Z,11.50